LCEN Airport Information

Runway Information
Runway 11 Length 9039 ft width 148 ft
Elevation 402 ft Threshold 0 ft Heading 107
Runway 29 Length 9039 ft Width 148 ft
Elevation 402 ft Threshold 0 ft Heading 287
Airport Frequencies
Type Enroute Name Ercan Rada Frequency 126.7 MHZ
Type Ercan Appr Name Frequency 126.9 MHZ
Type Ercan Atis Name Frequency 118.35 MHZ
Type Ercan Towe Name Frequency 120.2 MHZ
Airport Navaids
Airport Weather Information & NOTAM
ADDS - METARS form results

(0005 UTC 16 September 2019)
Data provider http://aviationweather.gov/metar/data/
 
METAR text: LCEN 152350Z 26007KT 9999 FEW025 23/15 Q1008 NOSIG RMK RWY11 26005KT
Conditions at: LCEN (ERCAN , CY) observed 2350 UTC 15 September 2019
Temperature: 23.0°C (73°F)
Dewpoint: 15.0°C (59°F) [RH = 61%]
Pressure (altimeter): 29.76 inches Hg (1008.0 mb)
Winds: from the W (260 degrees) at 8 MPH (7 knots; 3.6 m/s)
Visibility: 6 or more miles (10+ km)
Ceiling: at least 12,000 feet AGL
Clouds: few clouds at 2500 feet AGL
Weather: no significant weather observed at this time

METAR text: LCEN 152320Z 26006KT 9999 FEW025 23/15 Q1008 NOSIG RMK RWY11 27005KT
Conditions at: LCEN (ERCAN , CY) observed 2320 UTC 15 September 2019
Temperature: 23.0°C (73°F)
Dewpoint: 15.0°C (59°F) [RH = 61%]
Pressure (altimeter): 29.76 inches Hg (1008.0 mb)
Winds: from the W (260 degrees) at 7 MPH (6 knots; 3.1 m/s)
Visibility: 6 or more miles (10+ km)
Ceiling: at least 12,000 feet AGL
Clouds: few clouds at 2500 feet AGL
Weather: no significant weather observed at this time

Forecast for: LCEN (ERCAN , CY)
Text: TAF LCEN 152240Z 1600/1624 28015KT 9999 FEW025
Forecast period: 0000 UTC 16 September 2019 to 0000 UTC 17 September 2019
Forecast type: FROM: standard forecast or significant change
Winds: from the W (280 degrees) at 17 MPH (15 knots; 7.7 m/s)
Visibility: 6 or more miles 10+ km)
Ceiling: at least 12,000 feet AGL
Clouds: few clouds at 2500 feet AGL
Weather: no significant weather forecast for this period
Text: TEMPO 1600/1603 -SHRA BKN025
Forecast period: 0000 to 0300 UTC 16 September 2019
Forecast type: TEMPORARY: The following changes expected for less than half the time period
Visibility: missing
Ceiling: 2500 feet AGL
Clouds: broken clouds at 2500 feet AGL
Weather: -SHRA  (light rain showers)